Time;durP1;ratioP1;P1;durP2;ratioP2;P2;SDS_P1;SDS_P2;PMS_P1;PMS_P2;Temp;Humidity;BMP_temperature;BMP_pressure;BME280_temperature;BME280_humidity;BME280_pressure;Samples;Min_cycle;Max_cycle;Signal;HPM_P1;HPM_P2
2022/04/28 00:01:05;;;;;;;1.75;1.17;;;;;;;19.50;38.12;97040.25;5036081;28;20040;-30
2022/04/28 00:03:31;;;;;;;1.60;0.90;;;;;;;19.55;38.32;97044.31;5035733;28;20029;-30
2022/04/28 00:05:57;;;;;;;1.35;0.90;;;;;;;19.60;38.11;97038.94;5036049;28;20049;-29
2022/04/28 00:08:23;;;;;;;1.77;1.00;;;;;;;19.55;37.90;97036.81;5034965;28;20025;-32
2022/04/28 00:10:49;;;;;;;0.95;0.80;;;;;;;19.43;38.41;97037.03;5035850;28;20087;-30
2022/04/28 00:13:15;;;;;;;1.27;1.05;;;;;;;19.48;38.07;97031.66;5035766;28;20033;-30
2022/04/28 00:15:40;;;;;;;1.13;1.00;;;;;;;19.49;37.69;97033.22;5035768;28;20029;-30
2022/04/28 00:18:06;;;;;;;2.25;0.95;;;;;;;19.52;38.22;97037.03;5035687;28;20125;-30
2022/04/28 00:20:31;;;;;;;1.00;0.80;;;;;;;19.57;37.39;97028.09;5034347;28;20025;-30
2022/04/28 00:22:57;;;;;;;1.30;0.98;;;;;;;19.60;37.56;97027.16;5035621;28;20104;-30
2022/04/28 00:25:23;;;;;;;1.80;1.05;;;;;;;19.48;37.67;97037.16;5035601;28;20026;-30
2022/04/28 00:27:49;;;;;;;1.15;0.93;;;;;;;19.47;37.23;97027.38;5035708;28;20487;-30
2022/04/28 00:30:15;;;;;;;1.75;1.00;;;;;;;19.50;37.12;97036.72;5035612;28;20365;-30
2022/04/28 00:32:40;;;;;;;0.82;0.77;;;;;;;19.52;37.39;97024.03;5035423;28;20074;-29
2022/04/28 00:35:06;;;;;;;1.05;0.90;;;;;;;19.45;37.06;97035.34;5035439;28;20383;-30
2022/04/28 00:37:32;;;;;;;0.80;0.75;;;;;;;19.48;37.41;97023.41;5035259;28;20033;-30
2022/04/28 00:39:58;;;;;;;1.92;1.00;;;;;;;19.40;36.71;97033.25;5035079;28;20040;-30
2022/04/28 00:42:23;;;;;;;0.90;0.80;;;;;;;19.39;37.37;97020.72;5035277;28;20036;-30
2022/04/28 00:44:49;;;;;;;0.80;0.70;;;;;;;19.32;37.55;97021.06;5035000;28;20482;-30
2022/04/28 00:47:15;;;;;;;0.95;0.68;;;;;;;19.44;36.72;97025.56;5034939;28;20528;-30
2022/04/28 00:52:28;;;;;;;1.40;0.70;;;;;;;19.45;36.59;97024.34;5035122;28;20033;-30
2022/04/28 00:54:54;;;;;;;1.00;0.90;;;;;;;19.35;37.84;97017.41;5034976;28;20487;-30
2022/04/28 00:57:21;;;;;;;1.13;0.82;;;;;;;19.41;36.62;97026.50;5033846;28;20371;-30
2022/04/28 00:59:48;;;;;;;1.27;0.90;;;;;;;19.38;36.93;97019.22;5034733;28;20468;-30
2022/04/28 01:02:17;;;;;;;2.10;0.90;;;;;;;19.37;36.46;97014.94;5034911;28;20108;-32
2022/04/28 01:04:43;;;;;;;1.38;0.80;;;;;;;19.20;37.09;97016.59;5034823;28;20087;-29
2022/04/28 01:07:09;;;;;;;0.90;0.70;;;;;;;19.35;36.30;97014.66;5034739;28;20468;-30
2022/04/28 01:09:37;;;;;;;1.98;0.70;;;;;;;19.30;36.40;97018.03;5034633;28;20021;-31
2022/04/28 01:12:10;;;;;;;1.45;0.85;;;;;;;19.33;36.15;97006.88;5034628;28;20029;-29
2022/04/28 01:14:38;;;;;;;0.73;0.70;;;;;;;19.37;35.95;97007.44;5034881;28;20030;-32
2022/04/28 01:17:04;;;;;;;1.52;0.70;;;;;;;19.34;35.87;97002.88;5034846;28;20029;-30
2022/04/28 01:19:29;;;;;;;0.80;0.70;;;;;;;19.33;36.57;97009.63;5034486;28;20030;-29
2022/04/28 01:21:56;;;;;;;1.00;0.70;;;;;;;19.32;35.15;97010.06;5034416;28;20036;-30
2022/04/28 01:24:22;;;;;;;1.00;0.80;;;;;;;19.31;35.43;97006.56;5034510;28;20075;-30
2022/04/28 01:26:49;;;;;;;1.05;0.80;;;;;;;19.29;34.96;97002.75;5034458;28;20025;-31
2022/04/28 01:29:14;;;;;;;1.65;0.70;;;;;;;19.33;34.73;97006.09;5034468;28;20044;-30
2022/04/28 01:31:40;;;;;;;0.95;0.50;;;;;;;19.25;35.31;97008.47;5034212;28;20467;-31
2022/04/28 01:34:05;;;;;;;1.13;0.70;;;;;;;19.29;34.79;97002.75;5034410;28;20064;-30
2022/04/28 01:36:31;;;;;;;0.70;0.70;;;;;;;19.33;35.11;97006.09;5034079;28;20375;-30
2022/04/28 01:38:57;;;;;;;0.90;0.68;;;;;;;19.26;35.28;97004.47;5034169;28;20021;-30
2022/04/28 01:41:22;;;;;;;0.68;0.60;;;;;;;19.30;34.75;97012.53;5034068;28;20057;-30
2022/04/28 01:43:48;;;;;;;1.00;0.80;;;;;;;19.16;34.34;96999.53;5033963;28;20116;-32
2022/04/28 01:46:13;;;;;;;1.23;0.80;;;;;;;19.27;35.01;97008.75;5034165;28;20544;-30
2022/04/28 01:48:39;;;;;;;0.85;0.60;;;;;;;19.24;34.76;97008.94;5033860;28;20054;-30
2022/04/28 01:56:32;;;;;;;1.10;0.60;;;;;;;19.23;34.56;97008.16;5033771;28;20108;-30
2022/04/28 01:58:58;;;;;;;1.67;0.60;;;;;;;19.22;34.29;97005.88;5033852;28;20104;-30
2022/04/28 02:01:23;;;;;;;0.80;0.60;;;;;;;19.24;34.06;97011.69;5032582;28;20021;-30
2022/04/28 02:03:49;;;;;;;0.75;0.70;;;;;;;19.25;34.03;97002.19;5033938;28;20456;-30
2022/04/28 02:06:14;;;;;;;0.73;0.70;;;;;;;19.27;33.63;97010.75;5033891;28;20369;-30
2022/04/28 02:08:40;;;;;;;0.68;0.60;;;;;;;19.25;33.74;97010.44;5033954;28;20087;-30
2022/04/28 02:11:07;;;;;;;0.70;0.60;;;;;;;19.27;33.74;97010.75;5033589;28;20026;-29
2022/04/28 02:13:34;;;;;;;0.70;0.50;;;;;;;19.20;34.03;97003.59;5033482;28;20090;-30
2022/04/28 02:15:59;;;;;;;0.60;0.52;;;;;;;19.17;33.10;97003.78;5033611;28;20037;-30
2022/04/28 02:18:25;;;;;;;0.90;0.63;;;;;;;19.09;34.25;97006.13;5033473;28;20033;-29
2022/04/28 02:20:50;;;;;;;0.70;0.57;;;;;;;19.24;34.39;97006.19;5033582;28;20032;-29
2022/04/28 02:23:16;;;;;;;1.15;0.60;;;;;;;19.16;33.59;97010.53;5033304;28;20034;-32
2022/04/28 02:25:41;;;;;;;1.95;0.60;;;;;;;19.18;33.31;97008.03;5033591;28;20049;-31
2022/04/28 02:28:07;;;;;;;0.57;0.52;;;;;;;19.17;33.68;97006.53;5033401;28;20025;-30
2022/04/28 02:30:32;;;;;;;0.80;0.50;;;;;;;19.16;33.39;97005.03;5033227;28;20092;-30
2022/04/28 02:33:10;;;;;;;0.80;0.65;;;;;;;19.10;34.07;96999.41;5033074;28;20448;-30
2022/04/28 02:35:39;;;;;;;0.70;0.60;;;;;;;19.10;33.83;97009.63;5033325;28;20108;-30
2022/04/28 02:38:05;;;;;;;0.60;0.60;;;;;;;19.13;33.24;97003.97;5033096;28;20395;-30
2022/04/28 02:40:31;;;;;;;1.50;0.60;;;;;;;19.11;33.20;97011.91;5033311;28;20459;-30
2022/04/28 02:42:56;;;;;;;1.20;0.60;;;;;;;19.09;33.47;97008.13;5033181;28;20025;-30
2022/04/28 02:45:21;;;;;;;1.10;0.60;;;;;;;19.11;33.46;97005.66;5033000;28;20029;-30
2022/04/28 02:47:47;;;;;;;0.70;0.40;;;;;;;19.14;33.45;96991.75;5033168;28;20041;-32
2022/04/28 02:50:12;;;;;;;0.73;0.52;;;;;;;19.14;32.96;97005.50;5033226;28;20026;-30
2022/04/28 02:52:41;;;;;;;1.15;0.50;;;;;;;19.16;33.68;96996.78;5033482;28;20060;-31
2022/04/28 02:55:10;;;;;;;0.60;0.40;;;;;;;19.03;33.26;97008.00;5033238;28;20522;-30
2022/04/28 02:57:37;;;;;;;2.05;0.43;;;;;;;19.10;32.47;97004.91;5033083;28;20025;-31
2022/04/28 03:00:04;;;;;;;0.75;0.60;;;;;;;19.06;33.10;97003.53;5032962;28;20033;-31
2022/04/28 03:02:30;;;;;;;0.75;0.68;;;;;;;19.11;33.26;97000.91;5033083;28;20472;-30
2022/04/28 03:04:57;;;;;;;1.25;0.70;;;;;;;19.06;33.17;97003.53;5032934;28;20072;-30
2022/04/28 03:12:51;;;;;;;0.75;0.50;;;;;;;19.08;33.06;97010.09;5032959;28;20509;-30
2022/04/28 03:15:17;;;;;;;1.48;0.50;;;;;;;19.05;33.07;97011.03;5032908;28;20093;-30
2022/04/28 03:17:42;;;;;;;0.60;0.50;;;;;;;19.01;32.70;97007.72;5033195;28;20112;-30
2022/04/28 03:20:10;;;;;;;0.95;0.50;;;;;;;19.01;32.70;97013.97;5032761;28;20183;-30
2022/04/28 03:22:36;;;;;;;0.80;0.60;;;;;;;18.99;32.93;97010.94;5033065;28;20030;-31
2022/04/28 03:25:03;;;;;;;0.57;0.50;;;;;;;18.97;33.42;97013.38;5032779;28;20427;-30
2022/04/28 03:27:32;;;;;;;1.02;0.40;;;;;;;18.98;33.36;97008.66;5032793;28;20044;-29
2022/04/28 03:29:57;;;;;;;0.50;0.50;;;;;;;18.90;33.60;97019.25;5032892;28;20029;-30
2022/04/28 03:32:23;;;;;;;0.60;0.40;;;;;;;18.97;32.79;97024.38;5032866;28;20033;-30
2022/04/28 03:34:49;;;;;;;0.60;0.40;;;;;;;18.87;32.91;97014.66;5032799;28;20033;-30
2022/04/28 03:37:15;;;;;;;0.70;0.40;;;;;;;18.90;33.12;97018.47;5032789;28;20112;-30
2022/04/28 03:39:40;;;;;;;0.52;0.47;;;;;;;18.84;33.37;97026.59;5032648;28;20036;-30
2022/04/28 03:42:06;;;;;;;0.63;0.50;;;;;;;18.89;32.82;97017.72;5032740;28;20022;-30
2022/04/28 03:44:32;;;;;;;0.90;0.50;;;;;;;18.92;32.73;97014.00;5035303;28;20030;-31
2022/04/28 03:46:58;;;;;;;0.50;0.47;;;;;;;18.87;32.79;97019.41;5035966;28;20045;-30
2022/04/28 03:49:23;;;;;;;0.88;0.50;;;;;;;18.89;32.84;97012.22;5036212;28;20029;-30
2022/04/28 03:51:49;;;;;;;1.08;0.50;;;;;;;18.96;33.31;97019.34;5036203;28;20467;-30
2022/04/28 03:54:14;;;;;;;0.95;0.57;;;;;;;18.93;33.55;97012.03;5036242;28;20493;-30
2022/04/28 03:56:40;;;;;;;1.30;0.50;;;;;;;18.92;32.83;97022.25;5035949;28;20028;-30
2022/04/28 03:59:05;;;;;;;1.10;0.75;;;;;;;18.86;32.65;97017.88;5036184;28;20024;-30
2022/04/28 04:01:31;;;;;;;1.38;0.70;;;;;;;18.83;33.00;97019.56;5035943;28;20056;-30
2022/04/28 04:03:57;;;;;;;1.05;0.80;;;;;;;18.76;33.79;97019.16;5035815;28;20032;-30
2022/04/28 04:06:22;;;;;;;1.70;1.20;;;;;;;18.74;33.46;97018.84;5035931;28;20132;-30
2022/04/28 04:08:49;;;;;;;1.67;1.15;;;;;;;18.77;32.86;97021.44;5036025;28;20031;-30
2022/04/28 04:11:14;;;;;;;1.02;0.93;;;;;;;18.82;32.96;97023.53;5035967;28;20031;-30
2022/04/28 04:13:40;;;;;;;1.00;0.90;;;;;;;18.79;33.04;97024.47;5035630;28;20454;-29
2022/04/28 04:16:05;;;;;;;2.30;1.70;;;;;;;18.83;33.23;97029.78;5035931;28;20025;-30
2022/04/28 04:18:31;;;;;;;1.73;1.30;;;;;;;18.82;32.75;97020.78;5035773;28;20056;-30
2022/04/28 04:20:57;;;;;;;2.80;1.30;;;;;;;18.81;33.47;97027.50;5033684;28;20018;-31
2022/04/28 04:23:23;;;;;;;2.92;1.60;;;;;;;18.88;33.24;97027.19;5022005;28;20053;-30
2022/04/28 04:25:48;;;;;;;1.65;1.10;;;;;;;18.84;33.47;97031.31;5012037;28;20030;-30
2022/04/28 04:28:14;;;;;;;1.88;1.20;;;;;;;18.77;33.03;97031.69;5031945;28;20029;-31
2022/04/28 04:33:23;;;;;;;1.20;1.00;;;;;;;18.73;33.66;97028.31;5033441;28;20102;-31
2022/04/28 04:35:49;;;;;;;1.63;0.80;;;;;;;18.63;33.77;97027.63;5033218;28;20469;-31
2022/04/28 04:38:14;;;;;;;2.13;1.10;;;;;;;18.73;33.79;97025.59;5029888;28;20064;-30
2022/04/28 04:40:40;;;;;;;1.08;0.90;;;;;;;18.77;33.67;97037.94;5033078;28;20033;-30
2022/04/28 04:43:09;;;;;;;2.25;1.30;;;;;;;18.62;34.13;97042.56;5033183;28;20021;-30
2022/04/28 04:45:34;;;;;;;1.73;0.98;;;;;;;18.67;33.70;97039.94;5032804;28;20025;-30
2022/04/28 04:48:00;;;;;;;1.70;0.90;;;;;;;18.74;33.41;97038.84;5032876;28;20065;-30
2022/04/28 04:50:26;;;;;;;1.10;0.80;;;;;;;18.77;33.68;97046.19;5031490;28;20033;-31
2022/04/28 04:52:52;;;;;;;1.73;1.17;;;;;;;18.75;33.36;97039.63;5032924;28;20124;-30
2022/04/28 04:55:17;;;;;;;1.88;0.90;;;;;;;18.70;33.25;97041.00;5032593;28;20025;-30
2022/04/28 04:57:44;;;;;;;1.40;0.90;;;;;;;18.72;33.17;97048.78;5032205;28;20067;-30
2022/04/28 05:00:10;;;;;;;1.45;1.05;;;;;;;18.65;33.90;97044.41;5032823;28;20026;-30
2022/04/28 05:02:35;;;;;;;1.35;0.98;;;;;;;18.59;34.11;97047.00;5035152;28;20112;-30
2022/04/28 05:05:01;;;;;;;1.83;0.70;;;;;;;18.72;33.42;97048.78;5034424;28;20104;-30
2022/04/28 05:07:30;;;;;;;1.52;0.90;;;;;;;18.77;33.88;97056.41;5034923;28;20056;-29
2022/04/28 05:09:55;;;;;;;1.73;0.93;;;;;;;18.69;33.78;97049.72;5034756;28;20056;-32
2022/04/28 05:12:21;;;;;;;1.27;0.75;;;;;;;18.60;33.90;97051.28;5033360;28;20056;-30
2022/04/28 05:14:49;;;;;;;0.90;0.82;;;;;;;18.68;34.16;97046.19;5034556;28;20025;-29
2022/04/28 05:17:16;;;;;;;0.80;0.70;;;;;;;18.61;33.89;97054.78;5033494;28;20025;-30
2022/04/28 05:19:42;;;;;;;1.63;0.50;;;;;;;18.65;34.11;97047.91;5033349;28;20029;-30
2022/04/28 05:22:07;;;;;;;1.40;0.70;;;;;;;18.64;34.29;97062.09;5034544;28;20079;-30
2022/04/28 05:24:33;;;;;;;0.80;0.50;;;;;;;18.67;33.83;97059.16;5034333;28;20075;-30
2022/04/28 05:26:59;;;;;;;1.08;0.70;;;;;;;18.62;33.92;97059.81;5033764;28;20041;-30
2022/04/28 05:29:24;;;;;;;4.22;0.80;;;;;;;18.57;34.20;97054.91;5033117;28;20025;-30
2022/04/28 05:31:50;;;;;;;1.10;0.82;;;;;;;18.69;34.01;97064.22;5033761;28;20032;-31
2022/04/28 05:34:15;;;;;;;4.22;1.00;;;;;;;18.69;33.95;97060.69;5034026;28;20017;-31
2022/04/28 05:36:43;;;;;;;2.78;0.60;;;;;;;18.70;33.90;97065.72;5034012;28;20502;-30
2022/04/28 05:39:08;;;;;;;0.90;0.60;;;;;;;18.61;34.14;97071.28;5034206;28;20518;-30
2022/04/28 05:41:35;;;;;;;3.47;1.10;;;;;;;18.55;34.54;97075.81;5034111;28;20033;-30
2022/04/28 05:46:45;;;;;;;3.38;1.80;;;;;;;18.52;34.63;97083.03;5033843;28;20037;-30
2022/04/28 05:49:10;;;;;;;3.45;1.60;;;;;;;18.44;34.91;97081.81;5033992;28;20021;-30
2022/04/28 05:51:36;;;;;;;2.22;1.40;;;;;;;18.66;34.39;97084.38;5034228;28;20036;-30
2022/04/28 05:54:01;;;;;;;2.17;1.20;;;;;;;18.66;34.38;97081.63;5033900;28;20515;-30
2022/04/28 05:56:27;;;;;;;1.70;1.48;;;;;;;18.64;34.34;97086.84;5034033;28;20022;-30
2022/04/28 05:58:55;;;;;;;2.78;1.17;;;;;;;18.59;34.59;97082.72;5033824;28;20024;-30
2022/04/28 06:01:21;;;;;;;2.45;1.20;;;;;;;18.58;34.42;97083.19;5033719;28;20032;-30
2022/04/28 06:03:46;;;;;;;2.47;1.00;;;;;;;18.63;34.21;97077.84;5033673;28;20018;-30
2022/04/28 06:06:12;;;;;;;2.78;1.08;;;;;;;18.51;34.84;97087.00;5033173;28;20387;-30
2022/04/28 06:08:38;;;;;;;1.55;1.00;;;;;;;18.64;33.97;97084.09;5032232;28;20391;-30
2022/04/28 06:11:05;;;;;;;1.40;1.05;;;;;;;18.69;33.89;97099.16;5033751;28;20039;-30
2022/04/28 06:13:30;;;;;;;2.67;1.00;;;;;;;18.57;34.50;97092.63;5033828;28;20028;-30
2022/04/28 06:15:56;;;;;;;1.67;0.85;;;;;;;18.63;34.13;97093.56;5033607;28;20029;-30
2022/04/28 06:18:22;;;;;;;1.60;0.90;;;;;;;18.48;34.52;97090.66;5033542;28;20021;-30
2022/04/28 06:20:48;;;;;;;1.67;0.85;;;;;;;18.46;34.20;97092.34;5033403;28;20025;-30
2022/04/28 06:23:13;;;;;;;3.33;0.95;;;;;;;18.37;34.78;97097.88;5033579;28;20044;-30
2022/04/28 06:25:39;;;;;;;0.98;0.88;;;;;;;18.42;34.72;97100.75;5033196;28;20034;-33
2022/04/28 06:28:05;;;;;;;1.17;0.80;;;;;;;18.56;34.23;97096.59;5033305;28;20079;-30
2022/04/28 06:30:30;;;;;;;2.08;0.77;;;;;;;18.58;34.69;97094.16;5033798;28;20079;-31
2022/04/28 06:32:56;;;;;;;1.65;0.88;;;;;;;18.61;34.39;97099.50;5033423;28;20112;-30
2022/04/28 06:35:21;;;;;;;1.35;0.70;;;;;;;18.49;34.68;97088.69;5033149;28;20078;-31
2022/04/28 06:37:48;;;;;;;1.83;0.98;;;;;;;18.44;34.83;97092.81;5013782;28;20076;-30
2022/04/28 06:40:14;;;;;;;1.65;0.80;;;;;;;18.03;34.84;97099.78;5013857;28;20026;-30
2022/04/28 06:42:43;;;;;;;1.77;0.70;;;;;;;18.16;35.15;97103.09;5013477;28;20037;-29
2022/04/28 06:45:11;;;;;;;1.33;0.60;;;;;;;18.31;34.22;97098.47;5013349;28;20492;-30
2022/04/28 06:47:36;;;;;;;1.80;0.60;;;;;;;18.48;34.80;97092.66;5013483;28;20533;-30
2022/04/28 06:50:02;;;;;;;0.38;0.35;;;;;;;18.50;34.50;97096.47;5013365;28;20061;-30
2022/04/28 06:52:27;;;;;;;1.23;0.65;;;;;;;18.21;34.91;97099.72;5013599;28;20399;-30
2022/04/28 06:54:54;;;;;;;1.10;0.50;;;;;;;18.52;34.17;97105.00;5013368;28;20491;-30
2022/04/28 06:57:20;;;;;;;1.40;0.65;;;;;;;18.47;34.75;97096.63;5013142;28;20022;-31
2022/04/28 06:59:46;;;;;;;1.83;0.70;;;;;;;18.52;34.74;97105.00;5013426;28;20024;-30
2022/04/28 07:02:11;;;;;;;1.00;0.60;;;;;;;18.57;34.92;97106.34;5013927;28;20018;-31
2022/04/28 07:04:37;;;;;;;0.98;0.60;;;;;;;18.24;35.24;97107.06;5013534;28;20038;-30
2022/04/28 07:07:03;;;;;;;1.40;0.77;;;;;;;18.11;35.45;97109.22;5013285;28;20026;-30
2022/04/28 07:09:29;;;;;;;1.30;0.70;;;;;;;18.42;35.12;97105.50;5013311;28;20550;-30
2022/04/28 07:11:54;;;;;;;1.67;0.57;;;;;;;18.43;34.78;97110.50;5013328;28;20022;-31
2022/04/28 07:14:20;;;;;;;0.60;0.57;;;;;;;18.37;34.95;97108.84;5013227;28;20051;-30
2022/04/28 07:16:45;;;;;;;1.13;0.68;;;;;;;18.06;35.47;97112.56;5013194;28;20088;-30
2022/04/28 07:19:11;;;;;;;0.60;0.60;;;;;;;18.50;34.81;97112.19;5017100;28;20030;-30
2022/04/28 07:21:36;;;;;;;0.80;0.70;;;;;;;18.47;34.83;97115.84;5016954;28;20080;-31
2022/04/28 07:24:02;;;;;;;1.48;0.60;;;;;;;18.53;34.78;97117.53;5016957;28;20030;-30
2022/04/28 07:26:28;;;;;;;0.90;0.75;;;;;;;18.54;35.04;97112.78;5016742;28;20538;-32
2022/04/28 07:28:54;;;;;;;0.90;0.50;;;;;;;18.41;35.14;97114.97;5016994;28;20125;-30
2022/04/28 07:31:19;;;;;;;1.75;0.90;;;;;;;18.52;34.99;97116.00;5016766;28;20511;-30
2022/04/28 07:33:45;;;;;;;2.30;1.45;;;;;;;18.51;34.92;97111.72;5016875;28;20026;-29
2022/04/28 07:36:12;;;;;;;2.92;1.00;;;;;;;18.41;35.35;97117.69;5017001;28;20025;-30
2022/04/28 07:38:38;;;;;;;2.22;0.90;;;;;;;18.28;35.23;97115.91;5016536;28;20037;-30
2022/04/28 07:41:04;;;;;;;2.00;1.00;;;;;;;18.15;35.56;97126.28;5016533;28;20025;-30
2022/04/28 07:43:29;;;;;;;2.55;1.00;;;;;;;18.40;34.47;97116.94;5016623;28;20483;-31
2022/04/28 07:45:54;;;;;;;2.05;0.93;;;;;;;18.19;35.70;97110.41;5016416;28;20026;-31
2022/04/28 07:48:20;;;;;;;1.95;0.90;;;;;;;18.23;35.44;97116.50;5016339;28;20046;-30
2022/04/28 07:50:47;;;;;;;1.98;0.95;;;;;;;17.98;34.72;97121.56;5016714;28;20451;-30
2022/04/28 07:53:13;;;;;;;2.33;0.90;;;;;;;18.02;35.93;97117.47;5016687;28;20029;-30
2022/04/28 07:55:38;;;;;;;1.70;0.90;;;;;;;18.16;35.94;97127.06;5016586;28;20022;-30
2022/04/28 07:58:04;;;;;;;1.15;1.02;;;;;;;18.27;35.85;97125.34;5016835;28;20475;-30
2022/04/28 08:00:29;;;;;;;2.97;0.90;;;;;;;18.52;35.50;97117.97;5016436;28;20101;-30
2022/04/28 08:02:55;;;;;;;2.17;1.08;;;;;;;18.35;35.39;97133.25;5016123;28;20022;-30
2022/04/28 08:05:20;;;;;;;1.63;0.90;;;;;;;18.49;35.48;97116.16;5016227;28;20097;-29
2022/04/28 08:07:46;;;;;;;1.15;0.98;;;;;;;18.53;35.05;97133.25;5016203;28;20534;-30
2022/04/28 08:10:12;;;;;;;2.03;1.30;;;;;;;18.19;35.64;97129.63;5016014;28;20061;-29
2022/04/28 08:12:38;;;;;;;1.30;0.90;;;;;;;18.35;35.91;97127.78;5016055;28;20029;-31
2022/04/28 08:15:04;;;;;;;1.83;1.05;;;;;;;18.34;35.83;97132.50;5016080;28;20026;-31
2022/04/28 08:17:29;;;;;;;1.48;0.95;;;;;;;18.64;35.82;97123.31;5016287;28;20034;-32
2022/04/28 08:19:55;;;;;;;1.48;0.98;;;;;;;18.61;35.79;97131.72;5016046;28;20384;-30
2022/04/28 08:22:20;;;;;;;1.30;0.88;;;;;;;18.33;35.65;97127.47;5016110;28;20030;-30
2022/04/28 08:24:46;;;;;;;2.67;1.00;;;;;;;18.45;35.61;97138.28;5015688;28;20421;-31
2022/04/28 08:27:11;;;;;;;5.75;2.85;;;;;;;18.31;35.15;97136.91;5015867;28;20072;-30
2022/04/28 08:29:37;;;;;;;4.20;2.33;;;;;;;18.17;34.52;97131.31;5015266;28;20025;-30
2022/04/28 08:32:04;;;;;;;2.25;1.30;;;;;;;18.20;34.96;97135.88;5015820;28;20022;-30
2022/04/28 08:34:29;;;;;;;3.00;1.30;;;;;;;18.07;34.57;97132.53;5015608;28;20026;-29
2022/04/28 08:36:55;;;;;;;2.45;1.55;;;;;;;18.25;34.94;97141.53;5015574;28;20033;-30
2022/04/28 08:39:21;;;;;;;1.85;1.10;;;;;;;18.30;35.00;97140.13;5015503;28;20022;-30
2022/04/28 08:41:49;;;;;;;1.50;1.00;;;;;;;18.37;34.90;97137.09;5015471;28;20029;-30
2022/04/28 08:44:20;;;;;;;2.00;1.15;;;;;;;18.69;36.46;97135.63;5015336;28;20144;-30
2022/04/28 08:46:52;;;;;;;2.53;1.50;;;;;;;18.64;36.40;97133.53;5015281;28;20092;-30
2022/04/28 08:49:26;;;;;;;1.63;1.05;;;;;;;18.50;36.26;97139.66;5015486;28;20022;-30
2022/04/28 08:51:54;;;;;;;2.78;1.20;;;;;;;18.36;36.09;97130.06;5015314;28;20380;-30
2022/04/28 08:54:21;;;;;;;3.58;1.00;;;;;;;18.44;35.59;97127.75;5015465;28;20026;-30
2022/04/28 08:56:47;;;;;;;1.75;1.00;;;;;;;18.67;36.23;97126.38;5013947;28;20026;-30
2022/04/28 08:59:14;;;;;;;2.33;1.38;;;;;;;18.65;34.49;97135.06;5015369;28;20037;-30
2022/04/28 09:01:39;;;;;;;1.55;1.20;;;;;;;18.63;36.56;97143.00;5015160;28;20033;-30
2022/04/28 09:04:05;;;;;;;3.33;1.38;;;;;;;18.58;36.48;97132.63;5014994;28;20468;-30
2022/04/28 09:06:34;;;;;;;1.38;0.90;;;;;;;18.63;36.13;97141.00;5014888;28;20058;-30
2022/04/28 09:09:10;;;;;;;3.15;1.20;;;;;;;18.70;35.12;97141.91;5015143;28;20104;-30
2022/04/28 09:11:40;;;;;;;1.73;1.15;;;;;;;18.77;36.46;97136.09;5015026;28;20026;-30
2022/04/28 09:14:09;;;;;;;1.73;1.10;;;;;;;18.74;36.12;97137.78;5014938;28;20021;-30
2022/04/28 09:16:59;;;;;;;1.70;1.20;;;;;;;18.63;36.83;97143.00;5015264;28;20388;-30
2022/04/28 09:19:32;;;;;;;1.85;0.95;;;;;;;18.76;35.86;97134.56;5014851;28;20022;-31
2022/04/28 09:22:06;;;;;;;1.55;1.00;;;;;;;18.84;36.51;97135.75;5014797;28;20026;-30
2022/04/28 09:24:33;;;;;;;1.48;0.93;;;;;;;18.65;36.92;97138.56;5014723;28;20029;-30
2022/04/28 09:26:58;;;;;;;1.45;0.93;;;;;;;18.77;36.63;97142.34;5014644;28;20028;-31
2022/04/28 09:29:30;;;;;;;1.50;1.00;;;;;;;18.93;36.38;97130.97;5014728;28;20025;-30
2022/04/28 09:31:56;;;;;;;1.40;0.90;;;;;;;18.92;36.32;97131.44;5014544;28;20125;-30
2022/04/28 09:34:23;;;;;;;1.00;0.90;;;;;;;18.92;36.30;97134.94;5014688;28;20072;-30
2022/04/28 09:36:50;;;;;;;2.10;1.25;;;;;;;18.95;36.53;97136.78;5013531;28;20037;-30
2022/04/28 09:44:49;;;;;;;1.83;1.10;;;;;;;18.84;36.72;97122.00;5014297;28;20094;-30
2022/04/28 09:47:15;;;;;;;1.42;1.20;;;;;;;18.83;36.28;97118.50;5013098;28;20042;-30
2022/04/28 09:49:41;;;;;;;1.88;1.10;;;;;;;18.93;36.44;97117.22;5014240;28;20427;-30
2022/04/28 09:52:09;;;;;;;1.38;1.00;;;;;;;18.99;36.29;97123.63;5014255;28;20068;-31
2022/04/28 09:54:36;;;;;;;1.52;0.98;;;;;;;18.83;36.78;97125.97;5014138;28;20014;-30
2022/04/28 09:57:03;;;;;;;1.15;1.02;;;;;;;18.97;36.06;97120.56;5012855;28;20369;-30
2022/04/28 09:59:30;;;;;;;1.45;1.10;;;;;;;19.02;36.23;97110.94;5014408;28;20036;-30
2022/04/28 10:01:58;;;;;;;1.83;1.10;;;;;;;19.04;35.94;97122.22;5014179;28;20084;-30
2022/04/28 10:04:24;;;;;;;2.13;1.00;;;;;;;19.08;35.93;97102.81;5013903;28;20030;-30
2022/04/28 10:06:50;;;;;;;1.55;1.25;;;;;;;19.13;36.10;97113.19;5012631;28;20061;-29
2022/04/28 10:09:19;;;;;;;1.55;1.08;;;;;;;19.07;35.99;97104.78;5013871;28;20022;-31
2022/04/28 10:11:48;;;;;;;1.73;1.10;;;;;;;19.10;35.88;97111.34;5013839;28;20553;-30
2022/04/28 10:14:14;;;;;;;2.22;1.15;;;;;;;19.10;35.88;97114.88;5014038;28;20025;-31
2022/04/28 10:16:44;;;;;;;2.17;1.23;;;;;;;19.11;36.10;97099.13;5013818;28;20025;-30
2022/04/28 10:19:17;;;;;;;1.30;1.00;;;;;;;19.17;35.73;97092.50;5013818;28;20068;-30
2022/04/28 10:21:45;;;;;;;1.10;1.00;;;;;;;19.06;35.87;97097.00;5013813;28;20117;-30
2022/04/28 10:32:58;;;;;;;1.63;1.10;;;;;;;19.16;35.44;97090.25;5013713;28;20076;-30
2022/04/28 10:35:43;;;;;;;1.20;0.80;;;;;;;19.16;35.61;97090.25;5013809;28;20022;-30
2022/04/28 10:38:10;;;;;;;1.55;1.10;;;;;;;19.17;35.29;97089.00;5013632;28;20040;-30
2022/04/28 10:41:01;;;;;;;1.08;0.88;;;;;;;19.19;35.29;97078.31;5012401;28;20026;-33
2022/04/28 10:43:32;;;;;;;1.27;1.17;;;;;;;19.18;35.40;97088.53;5013531;28;20157;-32
2022/04/28 10:46:01;;;;;;;1.88;1.20;;;;;;;19.24;34.96;97081.19;5012134;28;20388;-29
2022/04/28 10:48:29;;;;;;;3.40;1.20;;;;;;;19.19;35.26;97084.56;5013276;28;20092;-30
2022/04/28 10:51:22;;;;;;;2.80;1.17;;;;;;;19.24;35.00;97085.91;5013461;28;20490;-30
2022/04/28 10:54:28;;;;;;;1.70;1.13;;;;;;;19.23;35.38;97071.41;5001447;28;20049;-30
2022/04/28 10:57:01;;;;;;;1.50;1.13;;;;;;;19.29;35.05;97071.50;4960042;28;20027;-30
2022/04/28 10:59:27;;;;;;;2.67;1.10;;;;;;;19.20;35.42;97077.06;4976346;28;20031;-30
2022/04/28 11:01:53;;;;;;;1.63;1.27;;;;;;;19.26;35.32;97077.97;4976142;28;20030;-30
2022/04/28 11:04:26;;;;;;;1.42;1.13;;;;;;;19.23;34.96;97076.16;4976269;28;20563;-30
2022/04/28 11:06:58;;;;;;;1.30;1.10;;;;;;;19.24;35.20;97077.69;4976203;28;20027;-30
2022/04/28 11:09:34;;;;;;;1.53;1.13;;;;;;;19.27;34.97;97074.75;4976228;28;20043;-30
2022/04/28 11:12:16;;;;;;;1.25;1.15;;;;;;;19.33;35.04;97077.59;4976169;28;20042;-30
2022/04/28 11:14:46;;;;;;;1.73;1.17;;;;;;;19.31;35.04;97066.31;4976126;28;20043;-30
2022/04/28 11:17:12;;;;;;;1.77;1.10;;;;;;;19.25;35.38;97073.69;4976300;28;20031;-30
2022/04/28 11:19:39;;;;;;;2.25;1.35;;;;;;;19.27;35.13;97079.50;4976298;28;20027;-30
2022/04/28 11:22:05;;;;;;;1.10;1.00;;;;;;;19.29;35.18;97077.78;4976090;28;20046;-31
2022/04/28 11:24:30;;;;;;;2.35;1.08;;;;;;;19.38;34.79;97080.47;4975886;28;20442;-30
2022/04/28 11:27:00;;;;;;;1.30;1.20;;;;;;;19.29;34.93;97082.50;4985186;28;20061;-30
2022/04/28 11:29:27;;;;;;;1.15;1.00;;;;;;;19.34;34.77;97068.88;5016823;28;20046;-30
2022/04/28 11:31:53;;;;;;;2.00;1.05;;;;;;;19.34;35.13;97073.63;5016916;28;20061;-30
2022/04/28 11:34:20;;;;;;;1.98;1.20;;;;;;;19.27;35.11;97074.75;5016775;28;20061;-30
2022/04/28 11:36:46;;;;;;;2.30;1.40;;;;;;;19.29;35.07;97075.03;5016641;28;20026;-31
2022/04/28 11:39:11;;;;;;;1.73;1.38;;;;;;;19.31;35.09;97078.06;5016720;28;20022;-31
2022/04/28 11:41:42;;;;;;;5.22;1.40;;;;;;;19.36;34.96;97076.69;5016680;28;20503;-30
2022/04/28 11:44:13;;;;;;;1.88;1.20;;;;;;;19.35;35.10;97075.16;5016793;28;20037;-30
2022/04/28 11:46:45;;;;;;;2.90;1.20;;;;;;;19.30;35.30;97073.03;5016379;28;20026;-30
2022/04/28 11:49:11;;;;;;;1.42;1.33;;;;;;;19.40;34.80;97074.53;5016572;28;20025;-31
2022/04/28 11:51:37;;;;;;;2.55;1.38;;;;;;;19.41;34.94;97078.75;5016403;28;20083;-31
2022/04/28 11:54:20;;;;;;;1.40;1.20;;;;;;;19.42;35.01;97074.78;5015327;28;20491;-31
2022/04/28 11:56:45;;;;;;;2.15;1.20;;;;;;;19.50;35.10;97076.00;5016265;28;20034;-30
2022/04/28 11:59:11;;;;;;;3.17;1.25;;;;;;;19.46;35.10;97071.88;5016292;28;20442;-31
2022/04/28 12:01:39;;;;;;;1.70;1.20;;;;;;;19.52;35.03;97073.53;5016219;28;20032;-30
2022/04/28 12:04:05;;;;;;;1.55;1.38;;;;;;;19.49;35.00;97079.97;5015022;28;20392;-30
2022/04/28 12:06:31;;;;;;;2.67;1.60;;;;;;;19.47;35.34;97067.88;5016170;28;20439;-30